createdAt,value
2017-12-25T00:00:33.623Z,4.60
2017-12-25T00:03:01.486Z,4.70
2017-12-25T00:05:29.629Z,4.77
2017-12-25T00:07:57.558Z,4.17
2017-12-25T00:10:25.454Z,5.30
2017-12-25T00:12:54.564Z,4.80
2017-12-25T00:15:25.460Z,4.10
2017-12-25T00:17:54.971Z,4.80
2017-12-25T00:20:22.952Z,4.80
2017-12-25T00:22:51.284Z,4.77
2017-12-25T00:25:21.426Z,4.70
2017-12-25T00:27:49.518Z,4.53
2017-12-25T00:30:21.940Z,4.30
2017-12-25T00:32:49.781Z,4.33
2017-12-25T00:35:18.657Z,4.47
2017-12-25T00:37:47.572Z,4.40
2017-12-25T00:40:15.628Z,4.43
2017-12-25T00:42:44.256Z,3.93
2017-12-25T00:45:12.590Z,4.57
2017-12-25T00:47:43.512Z,4.90
2017-12-25T00:50:11.614Z,4.23
2017-12-25T00:52:40.474Z,4.47
2017-12-25T00:55:09.072Z,4.20
2017-12-25T00:57:37.851Z,3.90
2017-12-25T01:00:05.633Z,4.07
2017-12-25T01:02:34.275Z,3.90
2017-12-25T01:05:04.666Z,4.10
2017-12-25T01:07:34.061Z,4.13
2017-12-25T01:10:02.214Z,4.77
2017-12-25T01:12:30.346Z,4.23
2017-12-25T01:14:58.232Z,4.33
2017-12-25T01:17:26.272Z,4.30
2017-12-25T01:19:54.191Z,3.60
2017-12-25T01:22:22.062Z,4.00
2017-12-25T01:24:50.129Z,3.90
2017-12-25T01:27:18.075Z,3.50
2017-12-25T01:29:46.094Z,3.60
2017-12-25T01:32:14.788Z,3.30
2017-12-25T01:34:43.407Z,2.97
2017-12-25T01:37:11.299Z,3.43
2017-12-25T01:39:39.588Z,2.87
2017-12-25T01:42:07.537Z,3.30
2017-12-25T01:44:35.343Z,2.77
2017-12-25T01:47:06.400Z,2.87
2017-12-25T01:49:35.370Z,2.97
2017-12-25T01:52:03.499Z,2.70
2017-12-25T01:54:33.104Z,3.00
2017-12-25T01:57:04.245Z,2.63
2017-12-25T01:59:36.833Z,2.50
2017-12-25T02:02:06.120Z,2.40
2017-12-25T02:04:34.151Z,2.87
2017-12-25T02:09:10.008Z,2.87
2017-12-25T02:11:38.654Z,2.57
2017-12-25T02:14:06.607Z,2.53
2017-12-25T02:16:34.679Z,2.60
2017-12-25T02:19:03.442Z,2.57
2017-12-25T02:21:32.105Z,2.50
2017-12-25T02:24:00.280Z,2.47
2017-12-25T02:26:28.942Z,2.50
2017-12-25T02:28:56.932Z,2.30
2017-12-25T02:31:24.975Z,2.80
2017-12-25T02:33:53.997Z,2.20
2017-12-25T02:36:22.395Z,2.10
2017-12-25T02:38:50.395Z,2.30
2017-12-25T02:41:18.477Z,2.10
2017-12-25T02:43:47.453Z,2.10
2017-12-25T02:46:21.188Z,2.10
2017-12-25T02:48:49.014Z,2.60
2017-12-25T02:51:16.923Z,2.60
2017-12-25T02:53:45.163Z,2.33
2017-12-25T02:56:13.846Z,1.90
2017-12-25T02:58:41.698Z,1.80
2017-12-25T03:01:09.580Z,1.80
2017-12-25T03:03:38.396Z,1.70
2017-12-25T03:06:06.400Z,1.73
2017-12-25T03:08:50.346Z,1.70
2017-12-25T03:11:18.362Z,1.50
2017-12-25T03:13:46.579Z,1.37
2017-12-25T03:16:14.572Z,1.40
2017-12-25T03:18:42.610Z,1.50
2017-12-25T03:21:10.536Z,1.27
2017-12-25T03:23:38.408Z,1.50
2017-12-25T03:26:06.403Z,1.53
2017-12-25T03:28:34.738Z,1.77
2017-12-25T03:31:02.594Z,2.00
2017-12-25T03:33:30.661Z,2.00
2017-12-25T03:36:00.128Z,2.13
2017-12-25T03:38:30.586Z,2.13
2017-12-25T03:41:02.619Z,2.10
2017-12-25T03:43:30.516Z,2.20
2017-12-25T03:45:58.409Z,2.00
2017-12-25T03:48:26.397Z,2.00
2017-12-25T03:50:55.389Z,2.23
2017-12-25T03:53:25.756Z,1.93
2017-12-25T03:55:54.545Z,2.27
2017-12-25T03:58:22.712Z,1.93
2017-12-25T04:01:02.436Z,1.97
2017-12-25T04:03:31.238Z,2.33
2017-12-25T04:05:59.266Z,2.40
2017-12-25T04:08:28.650Z,2.30
2017-12-25T04:10:57.536Z,2.40
2017-12-25T04:13:27.406Z,2.23
2017-12-25T04:15:57.907Z,2.33
2017-12-25T04:18:28.655Z,2.10
2017-12-25T04:20:58.190Z,2.33
2017-12-25T04:23:26.838Z,2.40
2017-12-25T04:25:55.808Z,2.27
2017-12-25T04:29:56.152Z,2.20
2017-12-25T04:32:27.289Z,2.17
2017-12-25T04:34:56.622Z,1.90
2017-12-25T04:37:25.960Z,2.10
2017-12-25T04:39:53.807Z,1.97
2017-12-25T04:42:23.362Z,2.00
2017-12-25T04:44:52.758Z,1.90
2017-12-25T04:47:25.324Z,2.07
2017-12-25T04:49:53.155Z,1.87
2017-12-25T04:52:21.127Z,2.20
2017-12-25T04:54:49.023Z,2.30
2017-12-25T04:57:20.474Z,2.13
2017-12-25T04:59:48.276Z,2.50
2017-12-25T05:02:16.154Z,2.20
2017-12-25T05:04:44.036Z,2.30
2017-12-25T05:07:11.993Z,2.30
2017-12-25T05:09:40.056Z,2.43
2017-12-25T05:12:07.971Z,2.57
2017-12-25T05:14:35.953Z,2.40
2017-12-25T05:17:05.294Z,2.77
2017-12-25T05:19:33.217Z,2.37
2017-12-25T05:22:01.918Z,2.20
2017-12-25T05:24:30.072Z,2.10
2017-12-25T05:26:58.861Z,2.10
2017-12-25T05:29:26.733Z,2.03
2017-12-25T05:31:54.622Z,2.47
2017-12-25T05:34:23.260Z,2.20
2017-12-25T05:36:51.908Z,1.97
2017-12-25T05:39:19.854Z,2.00
2017-12-25T05:41:48.519Z,2.20
2017-12-25T05:44:16.523Z,2.30
2017-12-25T05:46:44.646Z,2.43
2017-12-25T05:49:13.313Z,2.30
2017-12-25T05:51:41.257Z,2.00
2017-12-25T05:54:09.866Z,2.10
2017-12-25T05:56:37.784Z,2.20
2017-12-25T05:59:05.821Z,2.40
2017-12-25T06:01:33.687Z,2.10
2017-12-25T06:04:01.636Z,2.37
2017-12-25T06:06:30.303Z,1.97
2017-12-25T06:08:58.197Z,2.30
2017-12-25T06:11:26.744Z,2.47
2017-12-25T06:13:54.728Z,2.90
2017-12-25T06:16:22.741Z,2.60
2017-12-25T06:18:50.701Z,2.90
2017-12-25T06:21:18.518Z,2.60
2017-12-25T06:23:46.418Z,2.50
2017-12-25T06:26:15.111Z,2.80
2017-12-25T06:28:45.939Z,2.90
2017-12-25T06:31:13.952Z,2.63
2017-12-25T06:33:41.880Z,2.30
2017-12-25T06:36:09.732Z,2.40
2017-12-25T06:38:39.856Z,2.70
2017-12-25T06:41:09.196Z,2.80
2017-12-25T06:43:39.102Z,2.57
2017-12-25T06:46:07.027Z,2.80
2017-12-25T06:49:04.966Z,3.00
2017-12-25T06:51:33.490Z,3.23
2017-12-25T06:54:10.249Z,2.80
2017-12-25T06:56:38.228Z,2.40
2017-12-25T06:59:06.305Z,2.70
2017-12-25T07:01:34.142Z,2.60
2017-12-25T07:04:02.003Z,2.50
2017-12-25T07:06:33.093Z,2.30
2017-12-25T07:09:00.978Z,2.40
2017-12-25T07:11:28.856Z,2.60
2017-12-25T07:13:57.539Z,2.30
2017-12-25T07:16:25.356Z,2.23
2017-12-25T07:18:53.185Z,2.40
2017-12-25T07:21:20.948Z,2.30
2017-12-25T07:23:48.867Z,2.00
2017-12-25T07:26:16.733Z,2.20
2017-12-25T07:28:44.617Z,2.63
2017-12-25T07:31:12.785Z,2.30
2017-12-25T07:33:40.660Z,2.43
2017-12-25T07:36:08.585Z,2.10
2017-12-25T07:38:36.487Z,2.40
2017-12-25T07:41:04.374Z,2.20
2017-12-25T07:43:32.217Z,1.93
2017-12-25T07:46:00.104Z,2.30
2017-12-25T07:48:27.957Z,2.33
2017-12-25T07:50:55.845Z,2.50
2017-12-25T07:53:23.665Z,2.37
2017-12-25T07:55:51.521Z,2.20
2017-12-25T07:58:19.429Z,2.23
2017-12-25T08:00:47.362Z,1.97
2017-12-25T08:03:15.400Z,2.20
2017-12-25T08:05:44.082Z,2.47
2017-12-25T08:08:11.901Z,2.60
2017-12-25T08:10:40.149Z,2.80
2017-12-25T08:13:08.742Z,2.10
2017-12-25T08:15:37.411Z,2.20
2017-12-25T08:18:06.073Z,2.40
2017-12-25T08:23:14.661Z,2.83
2017-12-25T08:25:42.470Z,2.10
2017-12-25T08:28:10.437Z,2.60
2017-12-25T08:30:38.267Z,2.40
2017-12-25T08:33:06.101Z,2.57
2017-12-25T08:35:33.941Z,1.70
2017-12-25T08:38:01.764Z,1.87
2017-12-25T08:40:29.608Z,1.90
2017-12-25T08:42:58.156Z,2.27
2017-12-25T08:45:25.969Z,1.53
2017-12-25T08:47:53.926Z,1.93
2017-12-25T08:50:22.715Z,2.00
2017-12-25T08:52:51.477Z,2.10
2017-12-25T08:55:19.374Z,1.97
2017-12-25T08:57:48.285Z,2.33
2017-12-25T09:00:16.877Z,2.00
2017-12-25T09:02:45.818Z,2.10
2017-12-25T09:05:24.244Z,1.80
2017-12-25T09:07:52.218Z,1.90
2017-12-25T09:10:20.120Z,1.97
2017-12-25T09:12:48.169Z,1.70
2017-12-25T09:15:16.896Z,2.20
2017-12-25T09:17:45.138Z,2.37
2017-12-25T09:20:14.841Z,2.20
2017-12-25T09:22:52.761Z,2.47
2017-12-25T09:25:20.770Z,2.30
2017-12-25T09:27:51.699Z,2.00
2017-12-25T09:30:19.808Z,1.30
2017-12-25T09:32:48.685Z,1.70
2017-12-25T09:35:21.950Z,1.60
2017-12-25T09:37:50.249Z,1.80
2017-12-25T09:40:18.093Z,1.60
2017-12-25T09:42:46.698Z,2.00
2017-12-25T09:45:14.596Z,1.80
2017-12-25T09:47:42.724Z,1.70
2017-12-25T09:50:10.549Z,1.60
2017-12-25T09:52:38.544Z,1.10
2017-12-25T09:55:06.426Z,1.80
2017-12-25T09:57:35.123Z,1.80
2017-12-25T10:00:04.211Z,1.80
2017-12-25T10:02:32.385Z,2.30
2017-12-25T10:05:01.066Z,1.90
2017-12-25T10:07:36.157Z,1.93
2017-12-25T10:10:03.969Z,1.70
2017-12-25T10:12:36.662Z,2.00
2017-12-25T10:15:05.029Z,1.83
2017-12-25T10:17:33.178Z,1.80
2017-12-25T10:20:01.470Z,1.70
2017-12-25T10:22:29.915Z,1.40
2017-12-25T10:25:02.317Z,1.70
2017-12-25T10:27:30.303Z,1.70
2017-12-25T10:29:58.465Z,1.40
2017-12-25T10:32:26.635Z,1.20
2017-12-25T10:34:56.884Z,1.63
2017-12-25T10:37:24.788Z,1.20
2017-12-25T10:39:52.825Z,1.80
2017-12-25T10:42:22.961Z,1.90
2017-12-25T10:44:51.135Z,2.10
2017-12-25T10:47:19.050Z,1.77
2017-12-25T10:49:49.641Z,2.30
2017-12-25T10:52:28.567Z,1.93
2017-12-25T10:55:13.971Z,1.60
2017-12-25T10:57:42.124Z,1.87
2017-12-25T11:00:10.468Z,2.10
2017-12-25T11:02:47.425Z,1.90
2017-12-25T11:05:15.697Z,3.20
2017-12-25T11:07:44.035Z,1.33
2017-12-25T11:10:12.224Z,1.30
2017-12-25T11:12:41.261Z,1.30
2017-12-25T11:15:10.478Z,1.77
2017-12-25T11:17:38.966Z,1.40
2017-12-25T11:20:06.933Z,1.53
2017-12-25T11:22:35.933Z,1.60
2017-12-25T11:25:04.005Z,1.67
2017-12-25T11:27:32.714Z,2.10
2017-12-25T11:30:02.954Z,1.77
2017-12-25T11:32:41.845Z,2.55
2017-12-25T11:35:12.830Z,2.25
2017-12-25T11:37:40.788Z,3.10
2017-12-25T11:40:09.125Z,3.43
2017-12-25T11:42:39.492Z,3.27
2017-12-25T11:45:07.773Z,3.90
2017-12-25T11:47:39.613Z,3.70
2017-12-25T11:50:08.125Z,3.50
2017-12-25T11:52:45.102Z,3.70
2017-12-25T11:55:14.035Z,3.60
2017-12-25T11:57:44.043Z,3.80
2017-12-25T12:00:12.634Z,3.90
2017-12-25T12:02:44.959Z,4.30
2017-12-25T12:05:14.888Z,4.90
2017-12-25T12:07:45.826Z,5.43
2017-12-25T12:10:14.772Z,4.83
2017-12-25T12:12:43.620Z,4.07
2017-12-25T12:15:12.549Z,4.68
2017-12-25T12:17:41.956Z,4.50
2017-12-25T12:20:10.192Z,4.43
2017-12-25T12:22:38.742Z,4.68
2017-12-25T12:25:06.687Z,4.12
2017-12-25T12:27:37.171Z,3.47
2017-12-25T12:30:07.332Z,3.03
2017-12-25T12:32:36.701Z,2.90
2017-12-25T12:35:04.646Z,2.72
2017-12-25T12:37:32.555Z,3.37
2017-12-25T12:40:02.437Z,3.83
2017-12-25T12:42:31.182Z,3.60
2017-12-25T12:44:59.861Z,3.50
2017-12-25T12:47:27.878Z,2.87
2017-12-25T12:49:59.307Z,3.23
2017-12-25T12:52:27.257Z,2.97
2017-12-25T12:54:56.042Z,3.00
2017-12-25T12:57:25.462Z,2.50
2017-12-25T12:59:53.694Z,2.30
2017-12-25T13:02:23.134Z,2.70
2017-12-25T13:04:52.626Z,2.78
2017-12-25T13:07:44.253Z,2.78
2017-12-25T13:10:14.520Z,2.00
2017-12-25T13:12:42.803Z,2.40
2017-12-25T13:15:14.606Z,2.20
2017-12-25T13:17:43.066Z,2.23
2017-12-25T13:20:11.766Z,2.17
2017-12-25T13:22:40.312Z,1.90
2017-12-25T13:25:10.390Z,1.83
2017-12-25T13:27:42.408Z,1.60
2017-12-25T13:30:10.537Z,1.90
2017-12-25T13:32:38.670Z,1.77
2017-12-25T13:35:09.323Z,2.10
2017-12-25T13:37:37.667Z,1.90
2017-12-25T13:40:05.952Z,2.08
2017-12-25T13:42:35.433Z,1.93
2017-12-25T13:45:05.858Z,2.20
2017-12-25T13:47:37.146Z,2.12
2017-12-25T13:50:05.424Z,1.85
2017-12-25T13:52:35.169Z,2.17
2017-12-25T13:55:05.978Z,2.20
2017-12-25T13:57:35.687Z,2.10
2017-12-25T14:00:16.030Z,2.10
2017-12-25T14:02:44.793Z,2.53
2017-12-25T14:05:13.164Z,2.00
2017-12-25T14:07:45.261Z,2.00
2017-12-25T14:10:21.036Z,2.10
2017-12-25T14:12:50.212Z,2.30
2017-12-25T14:15:18.871Z,2.30
2017-12-25T14:17:47.945Z,1.90
2017-12-25T14:20:16.724Z,1.67
2017-12-25T14:22:44.838Z,1.67
2017-12-25T14:25:13.037Z,1.67
2017-12-25T14:27:41.054Z,1.60
2017-12-25T14:30:10.458Z,1.80
2017-12-25T14:32:39.350Z,1.87
2017-12-25T14:35:07.318Z,1.75
2017-12-25T14:37:35.787Z,1.87
2017-12-25T14:40:04.559Z,1.80
2017-12-25T14:42:33.961Z,1.90
2017-12-25T14:45:06.631Z,2.00
2017-12-25T14:47:46.981Z,1.57
2017-12-25T14:50:15.256Z,1.95
2017-12-25T14:52:53.543Z,1.55
2017-12-25T14:55:22.585Z,1.42
2017-12-25T14:57:51.364Z,1.50
2017-12-25T15:00:20.146Z,2.10
2017-12-25T15:02:51.695Z,2.35
2017-12-25T15:05:20.315Z,1.73
2017-12-25T15:07:48.666Z,1.60
2017-12-25T15:10:16.775Z,1.70
2017-12-25T15:12:45.135Z,1.70
2017-12-25T15:15:13.710Z,1.90
2017-12-25T15:17:42.219Z,1.62
2017-12-25T15:20:12.245Z,1.80
2017-12-25T15:22:42.843Z,1.80
2017-12-25T15:25:13.589Z,1.90
2017-12-25T15:30:04.726Z,2.12
2017-12-25T15:32:34.676Z,1.90
2017-12-25T15:35:04.364Z,1.87
2017-12-25T15:37:39.265Z,2.15
2017-12-25T15:40:08.355Z,2.30
2017-12-25T15:42:41.555Z,2.45
2017-12-25T15:45:11.854Z,2.30
2017-12-25T15:47:41.649Z,2.37
2017-12-25T15:50:11.610Z,2.43
2017-12-25T15:52:45.835Z,2.60
2017-12-25T15:55:46.308Z,2.77
2017-12-25T15:58:18.852Z,4.10
2017-12-25T16:00:49.671Z,4.03
2017-12-25T16:03:26.191Z,3.78
2017-12-25T16:06:00.138Z,4.25
2017-12-25T16:08:30.046Z,3.53
2017-12-25T16:11:00.208Z,4.35
2017-12-25T16:13:28.890Z,3.80
2017-12-25T16:15:58.712Z,3.33
2017-12-25T16:18:30.330Z,4.25
2017-12-25T16:20:59.384Z,4.50
2017-12-25T16:23:30.927Z,3.72
2017-12-25T16:26:01.002Z,4.82
2017-12-25T16:28:31.050Z,5.60
2017-12-25T16:31:00.114Z,5.40
2017-12-25T16:33:31.625Z,5.62
2017-12-25T16:36:01.005Z,6.40
2017-12-25T16:38:30.370Z,6.90
2017-12-25T16:40:59.430Z,5.68
2017-12-25T16:43:32.743Z,7.68
2017-12-25T16:46:00.948Z,8.73
2017-12-25T16:48:29.734Z,8.20
2017-12-25T16:50:58.731Z,8.13
2017-12-25T16:53:32.788Z,8.20
2017-12-25T16:56:04.162Z,8.75
2017-12-25T16:58:37.749Z,9.05
2017-12-25T17:01:19.478Z,9.73
2017-12-25T17:03:59.065Z,9.13
2017-12-25T17:06:35.070Z,9.65
2017-12-25T17:09:08.511Z,9.25
2017-12-25T17:11:53.308Z,10.10
2017-12-25T17:14:25.194Z,8.55
2017-12-25T17:16:59.117Z,9.30
2017-12-25T17:19:32.115Z,9.07
2017-12-25T17:22:05.722Z,8.95
2017-12-25T17:24:41.239Z,9.63
2017-12-25T17:27:23.291Z,8.70
2017-12-25T17:29:54.675Z,8.23
2017-12-25T17:32:25.392Z,9.38
2017-12-25T17:34:56.502Z,9.07
2017-12-25T17:37:32.033Z,8.60
2017-12-25T17:40:03.690Z,8.98
2017-12-25T17:42:33.086Z,8.25
2017-12-25T17:45:06.909Z,8.55
2017-12-25T17:47:40.332Z,8.18
2017-12-25T17:50:10.554Z,8.95
2017-12-25T17:52:43.988Z,7.22
2017-12-25T17:55:17.900Z,5.97
2017-12-25T17:57:54.194Z,7.50
2017-12-25T18:00:26.406Z,7.50
2017-12-25T18:02:54.896Z,8.32
2017-12-25T18:05:24.805Z,8.02
2017-12-25T18:07:54.574Z,7.47
2017-12-25T18:10:29.459Z,8.00
2017-12-25T18:13:04.698Z,7.90
2017-12-25T18:15:39.216Z,8.27
2017-12-25T18:18:10.716Z,8.20
2017-12-25T18:20:44.589Z,7.95
2017-12-25T18:23:27.763Z,8.77
2017-12-25T18:26:10.388Z,7.78
2017-12-25T18:28:40.841Z,6.93
2017-12-25T18:31:12.955Z,8.82
2017-12-25T18:33:56.274Z,8.55
2017-12-25T18:36:30.204Z,8.32
2017-12-25T18:39:10.005Z,9.40
2017-12-25T18:41:40.465Z,8.07
2017-12-25T18:44:21.782Z,8.63
2017-12-25T18:46:56.926Z,8.60
2017-12-25T18:49:30.018Z,8.60
2017-12-25T18:52:14.386Z,8.50
2017-12-25T18:54:48.547Z,9.40
2017-12-25T18:57:18.249Z,9.48
2017-12-25T18:59:49.009Z,8.10
2017-12-25T19:02:21.705Z,9.43
2017-12-25T19:04:54.160Z,8.55
2017-12-25T19:07:27.502Z,8.13
2017-12-25T19:10:01.401Z,9.52
2017-12-25T19:12:34.607Z,8.85
2017-12-25T19:15:04.218Z,8.18
2017-12-25T19:17:35.025Z,8.55
2017-12-25T19:20:06.860Z,8.23
2017-12-25T19:22:37.754Z,8.23
2017-12-25T19:25:06.843Z,9.00
2017-12-25T19:27:36.951Z,6.87
2017-12-25T19:30:11.293Z,9.75
2017-12-25T19:32:47.641Z,9.07
2017-12-25T19:35:22.202Z,9.60
2017-12-25T19:37:52.990Z,9.18
2017-12-25T19:40:24.205Z,9.32
2017-12-25T19:43:01.681Z,9.48
2017-12-25T19:45:31.576Z,9.02
2017-12-25T19:48:04.419Z,9.13
2017-12-25T19:50:34.016Z,8.48
2017-12-25T19:53:04.850Z,9.45
2017-12-25T19:55:36.077Z,9.75
2017-12-25T19:58:07.586Z,9.10
2017-12-25T20:00:38.023Z,10.00
2017-12-25T20:03:08.694Z,10.48
2017-12-25T20:05:39.172Z,10.82
2017-12-25T20:08:10.016Z,10.85
2017-12-25T20:10:41.659Z,11.75
2017-12-25T20:13:13.459Z,10.30
2017-12-25T20:15:45.715Z,9.95
2017-12-25T20:18:17.015Z,10.20
2017-12-25T20:20:47.945Z,11.02
2017-12-25T20:23:19.008Z,10.90
2017-12-25T20:25:53.965Z,10.32
2017-12-25T20:28:29.714Z,10.10
2017-12-25T20:31:02.511Z,10.13
2017-12-25T20:33:33.724Z,10.02
2017-12-25T20:36:07.944Z,9.73
2017-12-25T20:40:08.076Z,10.30
2017-12-25T20:42:38.686Z,11.55
2017-12-25T20:45:25.662Z,10.45
2017-12-25T20:47:57.426Z,11.75
2017-12-25T20:50:29.810Z,9.20
2017-12-25T20:53:18.081Z,10.13
2017-12-25T20:56:05.970Z,10.52
2017-12-25T20:58:38.292Z,8.70
2017-12-25T21:01:10.802Z,10.43
2017-12-25T21:03:56.049Z,10.13
2017-12-25T21:06:29.596Z,9.93
2017-12-25T21:09:01.723Z,11.40
2017-12-25T21:11:37.527Z,9.63
2017-12-25T21:14:09.881Z,11.27
2017-12-25T21:16:44.328Z,11.10
2017-12-25T21:19:17.066Z,10.73
2017-12-25T21:21:49.385Z,11.48
2017-12-25T21:24:19.553Z,11.98
2017-12-25T21:26:52.960Z,8.70
2017-12-25T21:29:23.376Z,9.80
2017-12-25T21:31:53.617Z,11.23
2017-12-25T21:34:22.971Z,11.73
2017-12-25T21:36:55.916Z,11.60
2017-12-25T21:39:28.090Z,11.23
2017-12-25T21:41:59.855Z,12.13
2017-12-25T21:44:33.201Z,12.25
2017-12-25T21:47:08.574Z,10.70
2017-12-25T21:49:44.324Z,12.90
2017-12-25T21:52:40.619Z,12.48
2017-12-25T21:55:16.943Z,11.65
2017-12-25T22:00:25.683Z,12.27
2017-12-25T22:02:56.999Z,11.95
2017-12-25T22:05:55.614Z,11.90
2017-12-25T22:08:30.400Z,11.88
2017-12-25T22:11:07.133Z,10.82
2017-12-25T22:13:39.511Z,12.27
2017-12-25T22:22:43.583Z,11.60
2017-12-25T22:25:31.802Z,10.77
2017-12-25T22:28:13.412Z,11.57
2017-12-25T22:33:27.455Z,11.18
2017-12-25T22:36:18.498Z,10.85
2017-12-25T22:38:55.844Z,11.75
2017-12-25T22:41:31.716Z,10.93
2017-12-25T22:44:03.794Z,12.23
2017-12-25T22:46:33.417Z,10.15
2017-12-25T22:49:03.581Z,10.68
2017-12-25T22:51:32.955Z,12.13
2017-12-25T22:54:02.935Z,11.32
2017-12-25T22:56:35.100Z,10.82
2017-12-25T22:59:07.246Z,10.80
2017-12-25T23:01:36.618Z,9.63
2017-12-25T23:04:06.357Z,8.82
2017-12-25T23:06:36.317Z,10.80
2017-12-25T23:09:09.442Z,11.38
2017-12-25T23:11:40.986Z,10.73
2017-12-25T23:14:09.905Z,9.45
2017-12-25T23:16:38.198Z,10.85
2017-12-25T23:19:08.098Z,11.20
2017-12-25T23:21:36.284Z,10.93
2017-12-25T23:24:04.863Z,11.30
2017-12-25T23:26:33.837Z,10.80
2017-12-25T23:29:02.171Z,11.40
2017-12-25T23:31:36.069Z,10.85
2017-12-25T23:34:04.065Z,11.30
2017-12-25T23:36:33.104Z,10.73
2017-12-25T23:39:02.630Z,11.57
2017-12-25T23:41:38.212Z,11.73
2017-12-25T23:44:06.313Z,12.02
2017-12-25T23:46:34.270Z,11.80
2017-12-25T23:49:02.619Z,12.40
2017-12-25T23:51:32.434Z,12.90
2017-12-25T23:54:01.842Z,11.73
2017-12-25T23:56:30.695Z,11.20
2017-12-25T23:58:59.080Z,12.18
